This is the latest recevied weather packets stored in our database for station/object LRAR. If no packets are shown the sender has not sent any weather packets the latest 1 day(s).
| Time | Temp. | Humidity | Pressure | Rain* | Wind** | Luminosity | Snow |
|---|---|---|---|---|---|---|---|
| 1777999718 | 26.11° C | 24% | 1011 hPa | - | 3.13 m/s, 210° | - | - |
| 1777998818 | 26.11° C | 24% | 1011 hPa | - | 3.13 m/s, 210° | - | - |
| 1777997919 | 26.11° C | 28% | 1011 hPa | - | 2.24 m/s, 190° | - | - |
| 1777997019 | 26.11° C | 28% | 1011 hPa | - | 2.24 m/s, 190° | - | - |
| 1777996119 | 26.11° C | 26% | 1011 hPa | - | 2.68 m/s, 210° | - | - |
| 1777995218 | 26.11° C | 26% | 1011 hPa | - | 2.68 m/s, 210° | - | - |
| 1777994327 | 27.22° C | 21% | 1012 hPa | - | 4.92 m/s, 220° | - | - |
| 1777993419 | 27.22° C | 21% | 1012 hPa | - | 4.92 m/s, 220° | - | - |
| 1777992519 | 27.22° C | 21% | 1012 hPa | - | 4.92 m/s, 210° | - | - |
| 1777991619 | 27.22° C | 21% | 1012 hPa | - | 4.92 m/s, 210° | - | - |
| 1777990719 | 27.22° C | 20% | 1012 hPa | - | 5.81 m/s, 190° | - | - |
| 1777989818 | 27.22° C | 20% | 1012 hPa | - | 5.81 m/s, 190° | - | - |
| 1777988957 | 27.22° C | 20% | 1012 hPa | - | 5.81 m/s, 190° | - | - |
| 1777988019 | 27.22° C | 20% | 1012 hPa | - | 5.81 m/s, 190° | - | - |
| 1777987118 | 27.22° C | 20% | 1013 hPa | - | 4.92 m/s, 210° | - | - |
| 1777986218 | 27.22° C | 20% | 1013 hPa | - | 4.92 m/s, 210° | - | - |
| 1777985319 | 27.22° C | 20% | 1013 hPa | - | 4.47 m/s, 170° | - | - |
| 1777984418 | 27.22° C | 20% | 1013 hPa | - | 4.47 m/s, 170° | - | - |
| 1777983518 | 27.22° C | 24% | 1013 hPa | - | 4.92 m/s, 210° | - | - |
| 1777982627 | 27.22° C | 24% | 1014 hPa | - | 4.02 m/s, 220° | - | - |
| 1777981726 | 27.22° C | 24% | 1014 hPa | - | 4.02 m/s, 220° | - | - |
| 1777980849 | 27.22° C | 24% | 1014 hPa | - | 4.02 m/s, 220° | - | - |
| 1777979919 | 26.11° C | 26% | 1014 hPa | - | 3.13 m/s, 170° | - | - |
| 1777979019 | 26.11° C | 26% | 1014 hPa | - | 3.13 m/s, 170° | - | - |
| 1777978119 | 26.11° C | 26% | 1014 hPa | - | 4.02 m/s, 230° | - | - |
* Rain since midnight (hover to see other rain measurements)
** Current wind speed in m/s (hover to see current wind gust speed)